sensor_id;sensor_type;location;lat;lon;timestamp;P1;durP1;ratioP1;P2;durP2;ratioP2
14748;SDS011;7466;53.574;9.976;2023-08-21T00:01:36;9.40;;;4.20;;
14748;SDS011;7466;53.574;9.976;2023-08-21T00:04:03;12.67;;;4.80;;
14748;SDS011;7466;53.574;9.976;2023-08-21T00:06:31;8.20;;;4.40;;
14748;SDS011;7466;53.574;9.976;2023-08-21T00:08:57;13.57;;;4.60;;
14748;SDS011;7466;53.574;9.976;2023-08-21T00:11:24;10.93;;;5.17;;
14748;SDS011;7466;53.574;9.976;2023-08-21T00:13:51;13.70;;;5.10;;
14748;SDS011;7466;53.574;9.976;2023-08-21T00:16:19;14.63;;;5.17;;
14748;SDS011;7466;53.574;9.976;2023-08-21T00:18:46;9.03;;;5.13;;
14748;SDS011;7466;53.574;9.976;2023-08-21T00:21:12;13.63;;;5.30;;
14748;SDS011;7466;53.574;9.976;2023-08-21T00:23:39;13.37;;;5.40;;
14748;SDS011;7466;53.574;9.976;2023-08-21T00:26:06;10.70;;;5.30;;
14748;SDS011;7466;53.574;9.976;2023-08-21T00:28:33;15.53;;;5.40;;
14748;SDS011;7466;53.574;9.976;2023-08-21T00:31:00;12.23;;;5.70;;
14748;SDS011;7466;53.574;9.976;2023-08-21T00:33:28;16.60;;;6.03;;
14748;SDS011;7466;53.574;9.976;2023-08-21T00:35:56;13.37;;;5.50;;
14748;SDS011;7466;53.574;9.976;2023-08-21T00:38:23;12.40;;;5.43;;
14748;SDS011;7466;53.574;9.976;2023-08-21T00:40:49;13.17;;;5.40;;
14748;SDS011;7466;53.574;9.976;2023-08-21T00:43:16;10.33;;;4.50;;
14748;SDS011;7466;53.574;9.976;2023-08-21T00:45:44;11.07;;;5.20;;
14748;SDS011;7466;53.574;9.976;2023-08-21T00:48:12;14.67;;;5.53;;
14748;SDS011;7466;53.574;9.976;2023-08-21T00:50:41;14.70;;;5.70;;
14748;SDS011;7466;53.574;9.976;2023-08-21T00:53:08;12.53;;;6.17;;
14748;SDS011;7466;53.574;9.976;2023-08-21T00:55:36;16.63;;;6.27;;
14748;SDS011;7466;53.574;9.976;2023-08-21T00:58:04;14.10;;;5.80;;
14748;SDS011;7466;53.574;9.976;2023-08-21T01:00:31;9.57;;;5.67;;
14748;SDS011;7466;53.574;9.976;2023-08-21T01:03:00;17.00;;;6.40;;
14748;SDS011;7466;53.574;9.976;2023-08-21T01:05:27;13.03;;;6.60;;
14748;SDS011;7466;53.574;9.976;2023-08-21T01:07:57;15.83;;;6.03;;
14748;SDS011;7466;53.574;9.976;2023-08-21T01:10:30;12.00;;;5.70;;
14748;SDS011;7466;53.574;9.976;2023-08-21T01:13:09;11.23;;;5.80;;
14748;SDS011;7466;53.574;9.976;2023-08-21T01:15:45;11.80;;;5.93;;
14748;SDS011;7466;53.574;9.976;2023-08-21T01:18:13;9.23;;;5.70;;
14748;SDS011;7466;53.574;9.976;2023-08-21T01:20:41;12.77;;;5.77;;
14748;SDS011;7466;53.574;9.976;2023-08-21T01:23:09;13.37;;;5.60;;
14748;SDS011;7466;53.574;9.976;2023-08-21T01:25:37;12.00;;;6.20;;
14748;SDS011;7466;53.574;9.976;2023-08-21T01:28:04;13.17;;;5.77;;
14748;SDS011;7466;53.574;9.976;2023-08-21T01:30:31;16.13;;;5.93;;
14748;SDS011;7466;53.574;9.976;2023-08-21T01:33:01;12.63;;;6.90;;
14748;SDS011;7466;53.574;9.976;2023-08-21T01:35:32;15.83;;;6.60;;
14748;SDS011;7466;53.574;9.976;2023-08-21T01:38:01;15.93;;;6.30;;
14748;SDS011;7466;53.574;9.976;2023-08-21T01:40:28;12.07;;;6.20;;
14748;SDS011;7466;53.574;9.976;2023-08-21T01:42:56;14.87;;;6.10;;
14748;SDS011;7466;53.574;9.976;2023-08-21T01:45:23;13.77;;;5.80;;
14748;SDS011;7466;53.574;9.976;2023-08-21T01:47:50;15.93;;;6.83;;
14748;SDS011;7466;53.574;9.976;2023-08-21T01:50:17;12.30;;;6.30;;
14748;SDS011;7466;53.574;9.976;2023-08-21T01:52:44;9.73;;;6.23;;
14748;SDS011;7466;53.574;9.976;2023-08-21T01:55:11;10.93;;;5.70;;
14748;SDS011;7466;53.574;9.976;2023-08-21T01:57:37;13.07;;;6.07;;
14748;SDS011;7466;53.574;9.976;2023-08-21T02:00:06;14.17;;;6.60;;
14748;SDS011;7466;53.574;9.976;2023-08-21T02:02:34;10.63;;;6.10;;
14748;SDS011;7466;53.574;9.976;2023-08-21T02:05:01;10.60;;;6.27;;
14748;SDS011;7466;53.574;9.976;2023-08-21T02:07:28;15.40;;;6.60;;
14748;SDS011;7466;53.574;9.976;2023-08-21T02:09:55;15.97;;;7.00;;
14748;SDS011;7466;53.574;9.976;2023-08-21T02:12:22;22.27;;;7.37;;
14748;SDS011;7466;53.574;9.976;2023-08-21T02:14:48;15.37;;;6.93;;
14748;SDS011;7466;53.574;9.976;2023-08-21T02:17:16;13.93;;;6.90;;
14748;SDS011;7466;53.574;9.976;2023-08-21T02:19:43;14.83;;;6.47;;
14748;SDS011;7466;53.574;9.976;2023-08-21T02:22:10;19.27;;;7.17;;
14748;SDS011;7466;53.574;9.976;2023-08-21T02:24:36;9.83;;;6.27;;
14748;SDS011;7466;53.574;9.976;2023-08-21T02:27:03;16.87;;;6.70;;
14748;SDS011;7466;53.574;9.976;2023-08-21T02:29:30;15.27;;;6.13;;
14748;SDS011;7466;53.574;9.976;2023-08-21T02:31:57;13.60;;;6.23;;
14748;SDS011;7466;53.574;9.976;2023-08-21T02:34:25;13.30;;;5.93;;
14748;SDS011;7466;53.574;9.976;2023-08-21T02:36:52;12.47;;;6.00;;
14748;SDS011;7466;53.574;9.976;2023-08-21T02:39:19;10.37;;;5.87;;
14748;SDS011;7466;53.574;9.976;2023-08-21T02:41:46;9.70;;;6.27;;
14748;SDS011;7466;53.574;9.976;2023-08-21T02:44:13;15.40;;;6.90;;
14748;SDS011;7466;53.574;9.976;2023-08-21T02:46:40;16.20;;;6.33;;
14748;SDS011;7466;53.574;9.976;2023-08-21T02:49:06;12.63;;;6.60;;
14748;SDS011;7466;53.574;9.976;2023-08-21T02:51:35;16.87;;;6.70;;
14748;SDS011;7466;53.574;9.976;2023-08-21T02:54:01;15.30;;;6.20;;
14748;SDS011;7466;53.574;9.976;2023-08-21T02:56:28;13.70;;;5.83;;
14748;SDS011;7466;53.574;9.976;2023-08-21T02:58:55;13.63;;;6.03;;
14748;SDS011;7466;53.574;9.976;2023-08-21T03:01:21;18.30;;;6.87;;
14748;SDS011;7466;53.574;9.976;2023-08-21T03:03:48;15.67;;;7.23;;
14748;SDS011;7466;53.574;9.976;2023-08-21T03:06:15;15.53;;;7.03;;
14748;SDS011;7466;53.574;9.976;2023-08-21T03:08:43;14.90;;;6.50;;
14748;SDS011;7466;53.574;9.976;2023-08-21T03:11:10;13.67;;;6.33;;
14748;SDS011;7466;53.574;9.976;2023-08-21T03:13:37;12.63;;;6.43;;
14748;SDS011;7466;53.574;9.976;2023-08-21T03:16:04;11.23;;;6.17;;
14748;SDS011;7466;53.574;9.976;2023-08-21T03:18:31;13.53;;;6.60;;
14748;SDS011;7466;53.574;9.976;2023-08-21T03:20:58;8.73;;;6.10;;
14748;SDS011;7466;53.574;9.976;2023-08-21T03:23:25;11.70;;;6.23;;
14748;SDS011;7466;53.574;9.976;2023-08-21T03:25:53;14.57;;;5.80;;
14748;SDS011;7466;53.574;9.976;2023-08-21T03:28:20;10.53;;;5.43;;
14748;SDS011;7466;53.574;9.976;2023-08-21T03:30:46;13.53;;;6.20;;
14748;SDS011;7466;53.574;9.976;2023-08-21T03:33:13;12.53;;;5.60;;
14748;SDS011;7466;53.574;9.976;2023-08-21T03:35:40;15.13;;;5.80;;
14748;SDS011;7466;53.574;9.976;2023-08-21T03:38:06;10.13;;;6.13;;
14748;SDS011;7466;53.574;9.976;2023-08-21T03:40:33;10.37;;;6.23;;
14748;SDS011;7466;53.574;9.976;2023-08-21T03:43:01;19.17;;;6.43;;
14748;SDS011;7466;53.574;9.976;2023-08-21T03:45:28;13.67;;;6.30;;
14748;SDS011;7466;53.574;9.976;2023-08-21T03:47:54;13.13;;;6.13;;
14748;SDS011;7466;53.574;9.976;2023-08-21T03:50:21;12.03;;;5.73;;
14748;SDS011;7466;53.574;9.976;2023-08-21T03:52:48;12.33;;;6.10;;
14748;SDS011;7466;53.574;9.976;2023-08-21T03:55:15;14.50;;;6.27;;
14748;SDS011;7466;53.574;9.976;2023-08-21T03:57:41;10.97;;;5.60;;
14748;SDS011;7466;53.574;9.976;2023-08-21T04:00:10;11.07;;;5.63;;
14748;SDS011;7466;53.574;9.976;2023-08-21T04:02:37;10.23;;;5.73;;
14748;SDS011;7466;53.574;9.976;2023-08-21T04:05:04;10.57;;;5.27;;
14748;SDS011;7466;53.574;9.976;2023-08-21T04:07:31;10.17;;;5.17;;
14748;SDS011;7466;53.574;9.976;2023-08-21T04:09:58;11.67;;;5.80;;
14748;SDS011;7466;53.574;9.976;2023-08-21T04:12:24;13.40;;;6.20;;
14748;SDS011;7466;53.574;9.976;2023-08-21T04:14:51;10.17;;;5.47;;
14748;SDS011;7466;53.574;9.976;2023-08-21T04:17:21;12.23;;;5.93;;
14748;SDS011;7466;53.574;9.976;2023-08-21T04:19:48;10.60;;;5.50;;
14748;SDS011;7466;53.574;9.976;2023-08-21T04:22:15;10.93;;;5.90;;
14748;SDS011;7466;53.574;9.976;2023-08-21T04:24:42;12.00;;;5.97;;
14748;SDS011;7466;53.574;9.976;2023-08-21T04:27:08;12.17;;;5.37;;
14748;SDS011;7466;53.574;9.976;2023-08-21T04:29:35;14.40;;;5.90;;
14748;SDS011;7466;53.574;9.976;2023-08-21T04:32:02;12.07;;;5.63;;
14748;SDS011;7466;53.574;9.976;2023-08-21T04:34:30;16.80;;;6.37;;
14748;SDS011;7466;53.574;9.976;2023-08-21T04:36:58;17.77;;;5.40;;
14748;SDS011;7466;53.574;9.976;2023-08-21T04:39:25;14.27;;;6.00;;
14748;SDS011;7466;53.574;9.976;2023-08-21T04:41:51;17.33;;;5.80;;
14748;SDS011;7466;53.574;9.976;2023-08-21T04:44:18;13.30;;;5.47;;
14748;SDS011;7466;53.574;9.976;2023-08-21T04:46:48;13.47;;;5.87;;
14748;SDS011;7466;53.574;9.976;2023-08-21T04:49:15;13.10;;;5.67;;
14748;SDS011;7466;53.574;9.976;2023-08-21T04:51:43;12.90;;;5.33;;
14748;SDS011;7466;53.574;9.976;2023-08-21T04:54:10;18.00;;;6.03;;
14748;SDS011;7466;53.574;9.976;2023-08-21T04:56:36;13.27;;;5.60;;
14748;SDS011;7466;53.574;9.976;2023-08-21T04:59:03;16.00;;;6.43;;
14748;SDS011;7466;53.574;9.976;2023-08-21T05:01:30;9.00;;;5.30;;
14748;SDS011;7466;53.574;9.976;2023-08-21T05:03:57;13.40;;;5.53;;
14748;SDS011;7466;53.574;9.976;2023-08-21T05:06:23;12.37;;;5.90;;
14748;SDS011;7466;53.574;9.976;2023-08-21T05:08:51;15.23;;;5.57;;
14748;SDS011;7466;53.574;9.976;2023-08-21T05:11:18;15.90;;;5.47;;
14748;SDS011;7466;53.574;9.976;2023-08-21T05:13:45;11.40;;;5.27;;
14748;SDS011;7466;53.574;9.976;2023-08-21T05:16:11;12.97;;;5.40;;
14748;SDS011;7466;53.574;9.976;2023-08-21T05:18:38;10.73;;;5.03;;
14748;SDS011;7466;53.574;9.976;2023-08-21T05:21:05;13.63;;;5.17;;
14748;SDS011;7466;53.574;9.976;2023-08-21T05:23:31;14.00;;;5.10;;
14748;SDS011;7466;53.574;9.976;2023-08-21T05:25:59;15.43;;;5.27;;
14748;SDS011;7466;53.574;9.976;2023-08-21T05:28:26;15.00;;;5.20;;
14748;SDS011;7466;53.574;9.976;2023-08-21T05:30:53;14.37;;;5.03;;
14748;SDS011;7466;53.574;9.976;2023-08-21T05:33:20;16.90;;;5.23;;
14748;SDS011;7466;53.574;9.976;2023-08-21T05:35:46;12.47;;;4.67;;
14748;SDS011;7466;53.574;9.976;2023-08-21T05:38:13;12.63;;;4.53;;
14748;SDS011;7466;53.574;9.976;2023-08-21T05:40:40;13.17;;;4.90;;
14748;SDS011;7466;53.574;9.976;2023-08-21T05:43:08;11.87;;;4.40;;
14748;SDS011;7466;53.574;9.976;2023-08-21T05:45:35;13.33;;;4.20;;
14748;SDS011;7466;53.574;9.976;2023-08-21T05:48:02;13.00;;;4.53;;
14748;SDS011;7466;53.574;9.976;2023-08-21T05:50:29;14.63;;;4.47;;
14748;SDS011;7466;53.574;9.976;2023-08-21T05:52:55;17.53;;;4.60;;
14748;SDS011;7466;53.574;9.976;2023-08-21T05:55:22;10.77;;;4.20;;
14748;SDS011;7466;53.574;9.976;2023-08-21T05:57:49;15.77;;;4.73;;
14748;SDS011;7466;53.574;9.976;2023-08-21T06:00:18;13.13;;;3.97;;
14748;SDS011;7466;53.574;9.976;2023-08-21T06:02:45;14.33;;;4.10;;
14748;SDS011;7466;53.574;9.976;2023-08-21T06:05:11;13.47;;;4.03;;
14748;SDS011;7466;53.574;9.976;2023-08-21T06:07:38;9.37;;;3.63;;
14748;SDS011;7466;53.574;9.976;2023-08-21T06:10:06;13.77;;;3.30;;
14748;SDS011;7466;53.574;9.976;2023-08-21T06:12:36;12.00;;;3.43;;
14748;SDS011;7466;53.574;9.976;2023-08-21T06:15:03;14.27;;;3.10;;
14748;SDS011;7466;53.574;9.976;2023-08-21T06:17:32;13.90;;;3.50;;
14748;SDS011;7466;53.574;9.976;2023-08-21T06:19:59;8.93;;;3.30;;
14748;SDS011;7466;53.574;9.976;2023-08-21T06:22:26;8.70;;;3.03;;
14748;SDS011;7466;53.574;9.976;2023-08-21T06:24:52;9.27;;;3.10;;
14748;SDS011;7466;53.574;9.976;2023-08-21T06:27:19;6.93;;;2.77;;
14748;SDS011;7466;53.574;9.976;2023-08-21T06:29:46;12.17;;;3.23;;
14748;SDS011;7466;53.574;9.976;2023-08-21T06:32:12;9.17;;;3.03;;
14748;SDS011;7466;53.574;9.976;2023-08-21T06:34:40;6.83;;;3.37;;
14748;SDS011;7466;53.574;9.976;2023-08-21T06:37:07;10.73;;;3.00;;
14748;SDS011;7466;53.574;9.976;2023-08-21T06:39:34;10.93;;;2.90;;
14748;SDS011;7466;53.574;9.976;2023-08-21T06:42:01;5.90;;;2.83;;
14748;SDS011;7466;53.574;9.976;2023-08-21T06:44:28;8.00;;;3.30;;
14748;SDS011;7466;53.574;9.976;2023-08-21T06:46:54;6.57;;;2.60;;
14748;SDS011;7466;53.574;9.976;2023-08-21T06:49:21;8.33;;;2.77;;
14748;SDS011;7466;53.574;9.976;2023-08-21T06:51:49;6.03;;;2.60;;
14748;SDS011;7466;53.574;9.976;2023-08-21T06:54:16;9.47;;;2.37;;
14748;SDS011;7466;53.574;9.976;2023-08-21T06:56:43;9.13;;;2.27;;
14748;SDS011;7466;53.574;9.976;2023-08-21T06:59:09;6.47;;;2.07;;
14748;SDS011;7466;53.574;9.976;2023-08-21T07:01:36;9.70;;;2.87;;
14748;SDS011;7466;53.574;9.976;2023-08-21T07:04:03;7.10;;;1.93;;
14748;SDS011;7466;53.574;9.976;2023-08-21T07:06:30;10.10;;;2.67;;
14748;SDS011;7466;53.574;9.976;2023-08-21T07:08:58;6.10;;;2.53;;
14748;SDS011;7466;53.574;9.976;2023-08-21T07:11:25;8.10;;;2.53;;
14748;SDS011;7466;53.574;9.976;2023-08-21T07:13:51;7.00;;;2.30;;
14748;SDS011;7466;53.574;9.976;2023-08-21T07:16:18;6.07;;;1.70;;
14748;SDS011;7466;53.574;9.976;2023-08-21T07:18:45;4.97;;;2.10;;
14748;SDS011;7466;53.574;9.976;2023-08-21T07:21:12;5.33;;;2.17;;
14748;SDS011;7466;53.574;9.976;2023-08-21T07:23:38;7.13;;;2.03;;
14748;SDS011;7466;53.574;9.976;2023-08-21T07:26:06;4.57;;;2.10;;
14748;SDS011;7466;53.574;9.976;2023-08-21T07:28:33;4.40;;;2.10;;
14748;SDS011;7466;53.574;9.976;2023-08-21T07:31:00;7.57;;;1.90;;
14748;SDS011;7466;53.574;9.976;2023-08-21T07:33:27;4.87;;;2.03;;
14748;SDS011;7466;53.574;9.976;2023-08-21T07:35:57;5.33;;;2.10;;
14748;SDS011;7466;53.574;9.976;2023-08-21T07:38:27;4.67;;;1.93;;
14748;SDS011;7466;53.574;9.976;2023-08-21T07:41:01;6.57;;;2.07;;
14748;SDS011;7466;53.574;9.976;2023-08-21T07:43:31;7.37;;;2.07;;
14748;SDS011;7466;53.574;9.976;2023-08-21T07:45:58;6.57;;;2.33;;
14748;SDS011;7466;53.574;9.976;2023-08-21T07:48:27;6.88;;;2.17;;
14748;SDS011;7466;53.574;9.976;2023-08-21T07:50:54;5.20;;;2.30;;
14748;SDS011;7466;53.574;9.976;2023-08-21T07:53:21;6.25;;;2.22;;
14748;SDS011;7466;53.574;9.976;2023-08-21T07:55:48;5.93;;;2.00;;
14748;SDS011;7466;53.574;9.976;2023-08-21T07:58:15;6.15;;;2.47;;
14748;SDS011;7466;53.574;9.976;2023-08-21T08:00:43;4.35;;;2.10;;
14748;SDS011;7466;53.574;9.976;2023-08-21T08:03:10;4.90;;;1.85;;
14748;SDS011;7466;53.574;9.976;2023-08-21T08:05:39;6.72;;;1.92;;
14748;SDS011;7466;53.574;9.976;2023-08-21T08:08:06;7.18;;;2.15;;
14748;SDS011;7466;53.574;9.976;2023-08-21T08:10:33;5.55;;;2.10;;
14748;SDS011;7466;53.574;9.976;2023-08-21T08:12:59;6.30;;;1.98;;
14748;SDS011;7466;53.574;9.976;2023-08-21T08:15:26;6.25;;;2.20;;
14748;SDS011;7466;53.574;9.976;2023-08-21T08:17:54;6.85;;;2.08;;
14748;SDS011;7466;53.574;9.976;2023-08-21T08:20:21;4.45;;;1.85;;
14748;SDS011;7466;53.574;9.976;2023-08-21T08:22:48;7.90;;;2.00;;
14748;SDS011;7466;53.574;9.976;2023-08-21T08:25:15;6.07;;;1.70;;
14748;SDS011;7466;53.574;9.976;2023-08-21T08:27:42;3.22;;;1.85;;
14748;SDS011;7466;53.574;9.976;2023-08-21T08:30:09;3.95;;;1.80;;
14748;SDS011;7466;53.574;9.976;2023-08-21T08:32:36;5.45;;;1.48;;
14748;SDS011;7466;53.574;9.976;2023-08-21T08:35:06;6.30;;;1.80;;
14748;SDS011;7466;53.574;9.976;2023-08-21T08:37:34;2.72;;;1.50;;
14748;SDS011;7466;53.574;9.976;2023-08-21T08:40:01;4.05;;;1.65;;
14748;SDS011;7466;53.574;9.976;2023-08-21T08:42:28;6.00;;;1.65;;
14748;SDS011;7466;53.574;9.976;2023-08-21T08:44:55;3.47;;;1.73;;
14748;SDS011;7466;53.574;9.976;2023-08-21T08:47:28;2.67;;;1.40;;
14748;SDS011;7466;53.574;9.976;2023-08-21T08:49:57;3.83;;;1.80;;
14748;SDS011;7466;53.574;9.976;2023-08-21T08:52:26;3.42;;;1.33;;
14748;SDS011;7466;53.574;9.976;2023-08-21T08:54:53;2.97;;;1.50;;
14748;SDS011;7466;53.574;9.976;2023-08-21T08:57:21;2.78;;;1.25;;
14748;SDS011;7466;53.574;9.976;2023-08-21T08:59:48;3.97;;;1.67;;
14748;SDS011;7466;53.574;9.976;2023-08-21T09:02:15;2.67;;;1.65;;
14748;SDS011;7466;53.574;9.976;2023-08-21T09:04:42;3.65;;;1.50;;
14748;SDS011;7466;53.574;9.976;2023-08-21T09:07:09;3.92;;;1.60;;
14748;SDS011;7466;53.574;9.976;2023-08-21T09:09:39;4.55;;;1.65;;
14748;SDS011;7466;53.574;9.976;2023-08-21T09:12:09;2.95;;;1.45;;
14748;SDS011;7466;53.574;9.976;2023-08-21T09:14:37;4.10;;;1.70;;
14748;SDS011;7466;53.574;9.976;2023-08-21T09:17:08;2.97;;;1.48;;
14748;SDS011;7466;53.574;9.976;2023-08-21T09:19:37;3.25;;;1.35;;
14748;SDS011;7466;53.574;9.976;2023-08-21T09:22:07;3.47;;;1.30;;
14748;SDS011;7466;53.574;9.976;2023-08-21T09:24:35;2.38;;;1.10;;
14748;SDS011;7466;53.574;9.976;2023-08-21T09:27:03;1.92;;;1.20;;
14748;SDS011;7466;53.574;9.976;2023-08-21T09:29:37;3.58;;;1.65;;
14748;SDS011;7466;53.574;9.976;2023-08-21T09:32:05;4.38;;;1.30;;
14748;SDS011;7466;53.574;9.976;2023-08-21T09:34:33;3.10;;;1.40;;
14748;SDS011;7466;53.574;9.976;2023-08-21T09:37:01;2.13;;;1.20;;
14748;SDS011;7466;53.574;9.976;2023-08-21T09:39:33;3.88;;;1.65;;
14748;SDS011;7466;53.574;9.976;2023-08-21T09:42:00;4.03;;;1.80;;
14748;SDS011;7466;53.574;9.976;2023-08-21T09:44:28;3.65;;;1.60;;
14748;SDS011;7466;53.574;9.976;2023-08-21T09:47:00;3.33;;;1.40;;
14748;SDS011;7466;53.574;9.976;2023-08-21T09:49:27;4.75;;;1.50;;
14748;SDS011;7466;53.574;9.976;2023-08-21T09:51:54;3.33;;;1.35;;
14748;SDS011;7466;53.574;9.976;2023-08-21T09:54:23;4.53;;;1.58;;
14748;SDS011;7466;53.574;9.976;2023-08-21T09:56:50;4.10;;;1.58;;
14748;SDS011;7466;53.574;9.976;2023-08-21T09:59:17;5.97;;;1.60;;
14748;SDS011;7466;53.574;9.976;2023-08-21T10:01:46;4.35;;;1.58;;
14748;SDS011;7466;53.574;9.976;2023-08-21T10:04:16;2.40;;;1.15;;
14748;SDS011;7466;53.574;9.976;2023-08-21T10:06:43;3.60;;;1.27;;
14748;SDS011;7466;53.574;9.976;2023-08-21T10:09:11;4.18;;;1.58;;
14748;SDS011;7466;53.574;9.976;2023-08-21T10:11:40;3.72;;;1.27;;
14748;SDS011;7466;53.574;9.976;2023-08-21T10:14:09;2.08;;;1.25;;
14748;SDS011;7466;53.574;9.976;2023-08-21T10:16:36;3.30;;;1.42;;
14748;SDS011;7466;53.574;9.976;2023-08-21T10:19:04;1.80;;;1.30;;
14748;SDS011;7466;53.574;9.976;2023-08-21T10:21:34;3.53;;;1.40;;
14748;SDS011;7466;53.574;9.976;2023-08-21T10:24:02;2.50;;;1.35;;
14748;SDS011;7466;53.574;9.976;2023-08-21T10:26:29;2.25;;;1.23;;
14748;SDS011;7466;53.574;9.976;2023-08-21T10:28:58;5.38;;;1.35;;
14748;SDS011;7466;53.574;9.976;2023-08-21T10:31:28;1.60;;;1.25;;
14748;SDS011;7466;53.574;9.976;2023-08-21T10:33:59;2.13;;;1.30;;
14748;SDS011;7466;53.574;9.976;2023-08-21T10:39:34;2.60;;;1.25;;
14748;SDS011;7466;53.574;9.976;2023-08-21T10:42:04;3.08;;;1.30;;
14748;SDS011;7466;53.574;9.976;2023-08-21T10:44:33;3.88;;;1.38;;
14748;SDS011;7466;53.574;9.976;2023-08-21T10:47:13;3.10;;;1.67;;
14748;SDS011;7466;53.574;9.976;2023-08-21T10:49:42;6.75;;;1.35;;
14748;SDS011;7466;53.574;9.976;2023-08-21T10:52:10;2.28;;;1.02;;
14748;SDS011;7466;53.574;9.976;2023-08-21T10:54:44;3.55;;;1.40;;
14748;SDS011;7466;53.574;9.976;2023-08-21T10:57:12;3.00;;;1.30;;
14748;SDS011;7466;53.574;9.976;2023-08-21T10:59:48;2.35;;;1.30;;
14748;SDS011;7466;53.574;9.976;2023-08-21T11:02:19;1.80;;;1.17;;
14748;SDS011;7466;53.574;9.976;2023-08-21T11:04:46;4.40;;;1.50;;
14748;SDS011;7466;53.574;9.976;2023-08-21T11:07:16;3.42;;;0.90;;
14748;SDS011;7466;53.574;9.976;2023-08-21T11:09:43;4.43;;;2.38;;
14748;SDS011;7466;53.574;9.976;2023-08-21T11:12:10;1.52;;;1.30;;
14748;SDS011;7466;53.574;9.976;2023-08-21T11:14:38;1.83;;;1.08;;
14748;SDS011;7466;53.574;9.976;2023-08-21T11:17:05;1.52;;;1.17;;
14748;SDS011;7466;53.574;9.976;2023-08-21T11:19:33;2.88;;;1.17;;
14748;SDS011;7466;53.574;9.976;2023-08-21T11:22:00;5.75;;;1.30;;
14748;SDS011;7466;53.574;9.976;2023-08-21T11:24:31;2.60;;;1.13;;
14748;SDS011;7466;53.574;9.976;2023-08-21T11:27:06;2.28;;;1.23;;
14748;SDS011;7466;53.574;9.976;2023-08-21T11:29:36;3.78;;;1.50;;
14748;SDS011;7466;53.574;9.976;2023-08-21T11:32:07;3.20;;;1.45;;
14748;SDS011;7466;53.574;9.976;2023-08-21T11:34:34;2.10;;;1.20;;
14748;SDS011;7466;53.574;9.976;2023-08-21T11:37:02;2.95;;;1.20;;
14748;SDS011;7466;53.574;9.976;2023-08-21T11:39:41;2.55;;;1.38;;
14748;SDS011;7466;53.574;9.976;2023-08-21T11:42:09;1.50;;;1.10;;
14748;SDS011;7466;53.574;9.976;2023-08-21T11:44:41;2.10;;;1.38;;
14748;SDS011;7466;53.574;9.976;2023-08-21T11:47:09;1.95;;;1.00;;
14748;SDS011;7466;53.574;9.976;2023-08-21T11:49:37;1.77;;;0.95;;
14748;SDS011;7466;53.574;9.976;2023-08-21T11:52:06;2.33;;;1.23;;
14748;SDS011;7466;53.574;9.976;2023-08-21T11:54:33;1.90;;;1.48;;
14748;SDS011;7466;53.574;9.976;2023-08-21T11:57:04;3.10;;;1.10;;
14748;SDS011;7466;53.574;9.976;2023-08-21T11:59:31;3.00;;;1.58;;
14748;SDS011;7466;53.574;9.976;2023-08-21T12:01:58;2.65;;;1.30;;
14748;SDS011;7466;53.574;9.976;2023-08-21T12:04:25;1.80;;;1.23;;
14748;SDS011;7466;53.574;9.976;2023-08-21T12:06:53;1.70;;;1.20;;
14748;SDS011;7466;53.574;9.976;2023-08-21T12:09:19;2.40;;;1.20;;
14748;SDS011;7466;53.574;9.976;2023-08-21T12:11:46;3.25;;;1.25;;
14748;SDS011;7466;53.574;9.976;2023-08-21T12:14:14;2.28;;;1.20;;
14748;SDS011;7466;53.574;9.976;2023-08-21T12:16:41;2.80;;;1.10;;
14748;SDS011;7466;53.574;9.976;2023-08-21T12:19:08;2.70;;;1.55;;
14748;SDS011;7466;53.574;9.976;2023-08-21T12:21:36;2.80;;;1.60;;
14748;SDS011;7466;53.574;9.976;2023-08-21T12:24:04;2.97;;;1.33;;
14748;SDS011;7466;53.574;9.976;2023-08-21T12:26:31;2.85;;;1.50;;
14748;SDS011;7466;53.574;9.976;2023-08-21T12:28:58;3.33;;;1.13;;
14748;SDS011;7466;53.574;9.976;2023-08-21T12:31:27;4.50;;;1.30;;
14748;SDS011;7466;53.574;9.976;2023-08-21T12:33:55;2.85;;;1.35;;
14748;SDS011;7466;53.574;9.976;2023-08-21T12:36:22;1.95;;;1.38;;
14748;SDS011;7466;53.574;9.976;2023-08-21T12:38:48;1.88;;;1.13;;
14748;SDS011;7466;53.574;9.976;2023-08-21T12:41:15;1.40;;;0.88;;
14748;SDS011;7466;53.574;9.976;2023-08-21T12:43:42;1.45;;;1.15;;
14748;SDS011;7466;53.574;9.976;2023-08-21T12:46:09;1.65;;;1.10;;
14748;SDS011;7466;53.574;9.976;2023-08-21T12:48:37;1.40;;;1.17;;
14748;SDS011;7466;53.574;9.976;2023-08-21T12:51:04;3.50;;;1.23;;
14748;SDS011;7466;53.574;9.976;2023-08-21T12:53:30;2.40;;;1.25;;
14748;SDS011;7466;53.574;9.976;2023-08-21T12:55:57;1.45;;;1.20;;
14748;SDS011;7466;53.574;9.976;2023-08-21T12:58:24;2.25;;;1.20;;
14748;SDS011;7466;53.574;9.976;2023-08-21T13:00:52;1.98;;;1.10;;
14748;SDS011;7466;53.574;9.976;2023-08-21T13:03:19;3.50;;;1.40;;
14748;SDS011;7466;53.574;9.976;2023-08-21T13:05:47;2.60;;;1.60;;
14748;SDS011;7466;53.574;9.976;2023-08-21T13:08:13;1.80;;;1.40;;
14748;SDS011;7466;53.574;9.976;2023-08-21T13:10:40;2.60;;;1.30;;
14748;SDS011;7466;53.574;9.976;2023-08-21T13:13:08;1.45;;;1.00;;
14748;SDS011;7466;53.574;9.976;2023-08-21T13:15:34;2.42;;;1.27;;
14748;SDS011;7466;53.574;9.976;2023-08-21T13:18:01;3.10;;;1.10;;
14748;SDS011;7466;53.574;9.976;2023-08-21T13:20:28;1.70;;;1.10;;
14748;SDS011;7466;53.574;9.976;2023-08-21T13:22:56;1.20;;;1.10;;
14748;SDS011;7466;53.574;9.976;2023-08-21T13:25:23;1.98;;;1.40;;
14748;SDS011;7466;53.574;9.976;2023-08-21T13:27:50;1.45;;;1.33;;
14748;SDS011;7466;53.574;9.976;2023-08-21T13:30:17;1.60;;;1.27;;
14748;SDS011;7466;53.574;9.976;2023-08-21T13:32:45;2.83;;;1.38;;
14748;SDS011;7466;53.574;9.976;2023-08-21T13:35:12;1.90;;;1.30;;
14748;SDS011;7466;53.574;9.976;2023-08-21T13:37:39;1.48;;;1.10;;
14748;SDS011;7466;53.574;9.976;2023-08-21T13:40:07;2.97;;;1.50;;
14748;SDS011;7466;53.574;9.976;2023-08-21T13:42:37;1.55;;;1.33;;
14748;SDS011;7466;53.574;9.976;2023-08-21T13:45:06;1.58;;;1.27;;
14748;SDS011;7466;53.574;9.976;2023-08-21T13:47:35;2.08;;;1.40;;
14748;SDS011;7466;53.574;9.976;2023-08-21T13:50:02;1.73;;;1.55;;
14748;SDS011;7466;53.574;9.976;2023-08-21T13:52:30;1.40;;;1.30;;
14748;SDS011;7466;53.574;9.976;2023-08-21T13:54:57;2.17;;;1.17;;
14748;SDS011;7466;53.574;9.976;2023-08-21T13:57:25;2.30;;;1.27;;
14748;SDS011;7466;53.574;9.976;2023-08-21T13:59:52;1.25;;;1.15;;
14748;SDS011;7466;53.574;9.976;2023-08-21T14:02:19;1.45;;;1.30;;
14748;SDS011;7466;53.574;9.976;2023-08-21T14:04:48;1.88;;;1.10;;
14748;SDS011;7466;53.574;9.976;2023-08-21T14:07:14;1.20;;;1.10;;
14748;SDS011;7466;53.574;9.976;2023-08-21T14:09:41;1.70;;;1.40;;
14748;SDS011;7466;53.574;9.976;2023-08-21T14:12:08;2.40;;;1.50;;
14748;SDS011;7466;53.574;9.976;2023-08-21T14:14:36;1.30;;;1.17;;
14748;SDS011;7466;53.574;9.976;2023-08-21T14:17:03;1.55;;;1.20;;
14748;SDS011;7466;53.574;9.976;2023-08-21T14:19:30;1.95;;;1.30;;
14748;SDS011;7466;53.574;9.976;2023-08-21T14:21:57;1.42;;;1.33;;
14748;SDS011;7466;53.574;9.976;2023-08-21T14:24:24;2.03;;;1.70;;
14748;SDS011;7466;53.574;9.976;2023-08-21T14:26:50;1.23;;;1.05;;
14748;SDS011;7466;53.574;9.976;2023-08-21T14:29:17;4.45;;;1.75;;
14748;SDS011;7466;53.574;9.976;2023-08-21T14:31:45;3.83;;;1.48;;
14748;SDS011;7466;53.574;9.976;2023-08-21T14:34:13;2.70;;;1.60;;
14748;SDS011;7466;53.574;9.976;2023-08-21T14:36:41;2.47;;;1.50;;
14748;SDS011;7466;53.574;9.976;2023-08-21T14:39:08;2.33;;;1.30;;
14748;SDS011;7466;53.574;9.976;2023-08-21T14:41:36;2.53;;;1.40;;
14748;SDS011;7466;53.574;9.976;2023-08-21T14:44:03;1.52;;;1.30;;
14748;SDS011;7466;53.574;9.976;2023-08-21T14:46:30;2.13;;;1.40;;
14748;SDS011;7466;53.574;9.976;2023-08-21T14:48:58;2.15;;;1.60;;
14748;SDS011;7466;53.574;9.976;2023-08-21T14:51:25;1.98;;;1.38;;
14748;SDS011;7466;53.574;9.976;2023-08-21T14:53:52;2.10;;;1.58;;
14748;SDS011;7466;53.574;9.976;2023-08-21T14:56:19;1.73;;;1.35;;
14748;SDS011;7466;53.574;9.976;2023-08-21T14:58:46;3.08;;;1.75;;
14748;SDS011;7466;53.574;9.976;2023-08-21T15:01:13;5.13;;;1.67;;